sensor_id;sensor_type;location;lat;lon;timestamp;pressure;altitude;pressure_sealevel;temperature;humidity
23574;BME280;11965;53.640;10.050;2023-03-16T00:01:04;101874.53;;;-1.68;100.00
23574;BME280;11965;53.640;10.050;2023-03-16T00:03:33;101869.09;;;-1.68;100.00
23574;BME280;11965;53.640;10.050;2023-03-16T00:06:00;101860.25;;;-1.72;100.00
23574;BME280;11965;53.640;10.050;2023-03-16T00:08:27;101866.44;;;-1.70;100.00
23574;BME280;11965;53.640;10.050;2023-03-16T00:10:54;101871.13;;;-1.72;100.00
23574;BME280;11965;53.640;10.050;2023-03-16T00:13:23;101866.91;;;-1.78;100.00
23574;BME280;11965;53.640;10.050;2023-03-16T00:15:51;101874.28;;;-1.80;100.00
23574;BME280;11965;53.640;10.050;2023-03-16T00:18:19;101876.22;;;-1.82;100.00
23574;BME280;11965;53.640;10.050;2023-03-16T00:20:49;101880.66;;;-1.81;100.00
23574;BME280;11965;53.640;10.050;2023-03-16T00:23:17;101879.53;;;-1.76;100.00
23574;BME280;11965;53.640;10.050;2023-03-16T00:25:43;101886.81;;;-1.77;100.00
23574;BME280;11965;53.640;10.050;2023-03-16T00:28:10;101882.63;;;-1.83;100.00
23574;BME280;11965;53.640;10.050;2023-03-16T00:30:39;101877.09;;;-1.81;100.00
23574;BME280;11965;53.640;10.050;2023-03-16T00:33:06;101887.09;;;-1.82;100.00
23574;BME280;11965;53.640;10.050;2023-03-16T00:35:33;101879.97;;;-1.84;100.00
23574;BME280;11965;53.640;10.050;2023-03-16T00:38:00;101883.81;;;-1.88;100.00
23574;BME280;11965;53.640;10.050;2023-03-16T00:40:27;101883.81;;;-1.88;100.00
23574;BME280;11965;53.640;10.050;2023-03-16T00:42:55;101882.28;;;-1.92;100.00
23574;BME280;11965;53.640;10.050;2023-03-16T00:45:21;101882.34;;;-1.94;100.00
23574;BME280;11965;53.640;10.050;2023-03-16T00:47:50;101883.31;;;-1.95;100.00
23574;BME280;11965;53.640;10.050;2023-03-16T00:50:19;101890.69;;;-1.97;100.00
23574;BME280;11965;53.640;10.050;2023-03-16T00:52:46;101891.03;;;-2.03;100.00
23574;BME280;11965;53.640;10.050;2023-03-16T00:55:13;101880.25;;;-2.05;100.00
23574;BME280;11965;53.640;10.050;2023-03-16T00:57:40;101877.03;;;-2.11;100.00
23574;BME280;11965;53.640;10.050;2023-03-16T01:00:08;101881.22;;;-2.06;100.00
23574;BME280;11965;53.640;10.050;2023-03-16T01:02:39;101885.44;;;-2.00;100.00
23574;BME280;11965;53.640;10.050;2023-03-16T01:05:08;101886.41;;;-2.01;100.00
23574;BME280;11965;53.640;10.050;2023-03-16T01:07:35;101882.03;;;-2.04;100.00
23574;BME280;11965;53.640;10.050;2023-03-16T01:10:03;101886.59;;;-2.04;100.00
23574;BME280;11965;53.640;10.050;2023-03-16T01:12:30;101883.06;;;-2.06;100.00
23574;BME280;11965;53.640;10.050;2023-03-16T01:14:57;101887.63;;;-2.07;100.00
23574;BME280;11965;53.640;10.050;2023-03-16T01:17:25;101879.56;;;-2.08;100.00
23574;BME280;11965;53.640;10.050;2023-03-16T01:19:52;101874.31;;;-2.11;100.00
23574;BME280;11965;53.640;10.050;2023-03-16T01:22:21;101877.72;;;-2.08;100.00
23574;BME280;11965;53.640;10.050;2023-03-16T01:24:47;101876.66;;;-2.05;100.00
23574;BME280;11965;53.640;10.050;2023-03-16T01:27:14;101874.13;;;-2.08;100.00
23574;BME280;11965;53.640;10.050;2023-03-16T01:29:43;101871.41;;;-2.08;100.00
23574;BME280;11965;53.640;10.050;2023-03-16T01:32:11;101865.09;;;-2.09;100.00
23574;BME280;11965;53.640;10.050;2023-03-16T01:34:41;101871.22;;;-2.05;100.00
23574;BME280;11965;53.640;10.050;2023-03-16T01:37:10;101866.84;;;-2.08;100.00
23574;BME280;11965;53.640;10.050;2023-03-16T01:39:59;101862.56;;;-2.12;100.00
23574;BME280;11965;53.640;10.050;2023-03-16T01:42:26;101864.38;;;-2.12;100.00
23574;BME280;11965;53.640;10.050;2023-03-16T01:44:59;101864.31;;;-2.11;100.00
23574;BME280;11965;53.640;10.050;2023-03-16T01:47:33;101871.84;;;-2.16;100.00
23574;BME280;11965;53.640;10.050;2023-03-16T01:50:05;101870.09;;;-2.17;100.00
23574;BME280;11965;53.640;10.050;2023-03-16T01:52:37;101866.59;;;-2.19;100.00
23574;BME280;11965;53.640;10.050;2023-03-16T01:55:09;101869.31;;;-2.19;100.00
23574;BME280;11965;53.640;10.050;2023-03-16T01:57:41;101871.78;;;-2.14;100.00
23574;BME280;11965;53.640;10.050;2023-03-16T02:00:15;101867.09;;;-2.12;100.00
23574;BME280;11965;53.640;10.050;2023-03-16T02:03:04;101870.09;;;-2.17;100.00
23574;BME280;11965;53.640;10.050;2023-03-16T02:05:45;101871.22;;;-2.21;100.00
23574;BME280;11965;53.640;10.050;2023-03-16T02:08:16;101870.72;;;-2.28;100.00
23574;BME280;11965;53.640;10.050;2023-03-16T02:10:45;101864.22;;;-2.25;100.00
23574;BME280;11965;53.640;10.050;2023-03-16T02:13:13;101856.16;;;-2.27;100.00
23574;BME280;11965;53.640;10.050;2023-03-16T02:15:39;101857.13;;;-2.28;100.00
23574;BME280;11965;53.640;10.050;2023-03-16T02:18:08;101861.84;;;-2.31;100.00
23574;BME280;11965;53.640;10.050;2023-03-16T02:20:41;101852.81;;;-2.32;100.00
23574;BME280;11965;53.640;10.050;2023-03-16T02:23:17;101853.81;;;-2.33;100.00
23574;BME280;11965;53.640;10.050;2023-03-16T02:25:59;101854.50;;;-2.29;100.00
23574;BME280;11965;53.640;10.050;2023-03-16T02:28:35;101849.06;;;-2.29;100.00
23574;BME280;11965;53.640;10.050;2023-03-16T02:31:05;101849.16;;;-2.31;100.00
23574;BME280;11965;53.640;10.050;2023-03-16T02:33:33;101847.50;;;-2.33;100.00
23574;BME280;11965;53.640;10.050;2023-03-16T02:36:00;101835.03;;;-2.37;100.00
23574;BME280;11965;53.640;10.050;2023-03-16T02:38:28;101847.56;;;-2.35;100.00
23574;BME280;11965;53.640;10.050;2023-03-16T02:40:58;101844.00;;;-2.35;100.00
23574;BME280;11965;53.640;10.050;2023-03-16T02:43:30;101847.50;;;-2.33;100.00
23574;BME280;11965;53.640;10.050;2023-03-16T02:46:10;101851.88;;;-2.31;100.00
23574;BME280;11965;53.640;10.050;2023-03-16T02:48:44;101848.25;;;-2.31;100.00
23574;BME280;11965;53.640;10.050;2023-03-16T02:51:12;101841.78;;;-2.29;100.00
23574;BME280;11965;53.640;10.050;2023-03-16T02:53:39;101849.59;;;-2.23;100.00
23574;BME280;11965;53.640;10.050;2023-03-16T02:56:07;101844.69;;;-2.16;100.00
23574;BME280;11965;53.640;10.050;2023-03-16T02:58:35;101848.25;;;-2.15;100.00
23574;BME280;11965;53.640;10.050;2023-03-16T03:01:06;101846.53;;;-2.16;100.00
23574;BME280;11965;53.640;10.050;2023-03-16T03:03:35;101847.56;;;-2.19;100.00
23574;BME280;11965;53.640;10.050;2023-03-16T03:06:03;101848.56;;;-2.20;100.00
23574;BME280;11965;53.640;10.050;2023-03-16T03:08:34;101848.38;;;-2.17;100.00
23574;BME280;11965;53.640;10.050;2023-03-16T03:11:01;101851.28;;;-2.20;100.00
23574;BME280;11965;53.640;10.050;2023-03-16T03:13:28;101851.41;;;-2.23;100.00
23574;BME280;11965;53.640;10.050;2023-03-16T03:15:56;101853.38;;;-2.25;100.00
23574;BME280;11965;53.640;10.050;2023-03-16T03:18:26;101858.00;;;-2.27;100.00
23574;BME280;11965;53.640;10.050;2023-03-16T03:20:54;101860.78;;;-2.29;100.00
23574;BME280;11965;53.640;10.050;2023-03-16T03:23:21;101858.00;;;-2.27;100.00
23574;BME280;11965;53.640;10.050;2023-03-16T03:25:48;101858.00;;;-2.27;100.00
23574;BME280;11965;53.640;10.050;2023-03-16T03:28:16;101852.41;;;-2.24;100.00
23574;BME280;11965;53.640;10.050;2023-03-16T03:30:43;101854.06;;;-2.22;100.00
23574;BME280;11965;53.640;10.050;2023-03-16T03:33:10;101857.66;;;-2.21;100.00
23574;BME280;11965;53.640;10.050;2023-03-16T03:35:37;101863.00;;;-2.19;100.00
23574;BME280;11965;53.640;10.050;2023-03-16T03:38:07;101854.94;;;-2.21;100.00
23574;BME280;11965;53.640;10.050;2023-03-16T03:40:36;101854.06;;;-2.22;100.00
23574;BME280;11965;53.640;10.050;2023-03-16T03:43:04;101860.47;;;-2.23;100.00
23574;BME280;11965;53.640;10.050;2023-03-16T03:45:35;101855.22;;;-2.26;100.00
23574;BME280;11965;53.640;10.050;2023-03-16T03:48:02;101855.09;;;-2.24;100.00
23574;BME280;11965;53.640;10.050;2023-03-16T03:50:29;101858.88;;;-2.27;100.00
23574;BME280;11965;53.640;10.050;2023-03-16T03:53:28;101872.44;;;-2.27;100.00
23574;BME280;11965;53.640;10.050;2023-03-16T03:56:12;101858.97;;;-2.28;100.00
23574;BME280;11965;53.640;10.050;2023-03-16T03:58:40;101865.00;;;-2.23;100.00
23574;BME280;11965;53.640;10.050;2023-03-16T04:01:07;101860.47;;;-2.23;100.00
23574;BME280;11965;53.640;10.050;2023-03-16T04:03:34;101853.19;;;-2.22;100.00
23574;BME280;11965;53.640;10.050;2023-03-16T04:06:02;101846.78;;;-2.21;100.00
23574;BME280;11965;53.640;10.050;2023-03-16T04:08:33;101853.81;;;-2.17;100.00
23574;BME280;11965;53.640;10.050;2023-03-16T04:11:00;101844.94;;;-2.20;100.00
23574;BME280;11965;53.640;10.050;2023-03-16T04:13:27;101851.16;;;-2.18;100.00
23574;BME280;11965;53.640;10.050;2023-03-16T04:15:55;101854.75;;;-2.18;100.00
23574;BME280;11965;53.640;10.050;2023-03-16T04:18:26;101846.34;;;-2.13;100.00
23574;BME280;11965;53.640;10.050;2023-03-16T04:20:54;101845.22;;;-2.09;100.00
23574;BME280;11965;53.640;10.050;2023-03-16T04:23:22;101843.19;;;-2.06;100.00
23574;BME280;11965;53.640;10.050;2023-03-16T04:25:52;101842.56;;;-2.11;100.00
23574;BME280;11965;53.640;10.050;2023-03-16T04:28:20;101847.41;;;-2.16;100.00
23574;BME280;11965;53.640;10.050;2023-03-16T04:30:51;101842.16;;;-2.19;100.00
23574;BME280;11965;53.640;10.050;2023-03-16T04:33:24;101840.47;;;-2.22;100.00
23574;BME280;11965;53.640;10.050;2023-03-16T04:35:51;101838.56;;;-2.19;100.00
23574;BME280;11965;53.640;10.050;2023-03-16T04:38:20;101841.97;;;-2.16;100.00
23574;BME280;11965;53.640;10.050;2023-03-16T04:40:54;101851.09;;;-2.17;100.00
23574;BME280;11965;53.640;10.050;2023-03-16T04:43:25;101852.66;;;-2.13;100.00
23574;BME280;11965;53.640;10.050;2023-03-16T04:45:56;101855.78;;;-2.05;100.00
23574;BME280;11965;53.640;10.050;2023-03-16T04:48:27;101852.13;;;-2.04;100.00
23574;BME280;11965;53.640;10.050;2023-03-16T04:50:54;101844.06;;;-2.05;100.00
23574;BME280;11965;53.640;10.050;2023-03-16T04:53:22;101844.59;;;-1.98;100.00
23574;BME280;11965;53.640;10.050;2023-03-16T04:55:56;101847.13;;;-1.95;100.00
23574;BME280;11965;53.640;10.050;2023-03-16T04:58:24;101840.47;;;-1.90;100.00
23574;BME280;11965;53.640;10.050;2023-03-16T05:00:52;101838.34;;;-1.85;100.00
23574;BME280;11965;53.640;10.050;2023-03-16T05:05:53;101839.66;;;-1.76;100.00
23574;BME280;11965;53.640;10.050;2023-03-16T05:08:21;101834.03;;;-1.73;100.00
23574;BME280;11965;53.640;10.050;2023-03-16T05:10:49;101839.47;;;-1.73;100.00
23574;BME280;11965;53.640;10.050;2023-03-16T05:13:19;101836.56;;;-1.70;100.00
23574;BME280;11965;53.640;10.050;2023-03-16T05:15:48;101832.97;;;-1.70;100.00
23574;BME280;11965;53.640;10.050;2023-03-16T05:18:23;101835.50;;;-1.67;100.00
23574;BME280;11965;53.640;10.050;2023-03-16T05:20:51;101824.91;;;-1.72;100.00
23574;BME280;11965;53.640;10.050;2023-03-16T05:23:19;101826.53;;;-1.69;100.00
23574;BME280;11965;53.640;10.050;2023-03-16T05:25:51;101829.25;;;-1.69;100.00
23574;BME280;11965;53.640;10.050;2023-03-16T05:28:22;101831.03;;;-1.68;100.00
23574;BME280;11965;53.640;10.050;2023-03-16T05:31:01;101825.69;;;-1.70;100.00
23574;BME280;11965;53.640;10.050;2023-03-16T05:33:29;101839.19;;;-1.68;100.00
23574;BME280;11965;53.640;10.050;2023-03-16T05:36:03;101840.13;;;-1.69;100.00
23574;BME280;11965;53.640;10.050;2023-03-16T05:38:30;101844.72;;;-1.70;100.00
23574;BME280;11965;53.640;10.050;2023-03-16T05:40:57;101848.22;;;-1.68;100.00
23574;BME280;11965;53.640;10.050;2023-03-16T05:43:51;101847.84;;;-1.62;100.00
23574;BME280;11965;53.640;10.050;2023-03-16T05:46:20;101857.47;;;-1.56;100.00
23574;BME280;11965;53.640;10.050;2023-03-16T05:48:49;101852.94;;;-1.56;100.00
23574;BME280;11965;53.640;10.050;2023-03-16T05:51:17;101859.84;;;-1.50;100.00
23574;BME280;11965;53.640;10.050;2023-03-16T05:53:45;101861.31;;;-1.44;100.00
23574;BME280;11965;53.640;10.050;2023-03-16T05:56:26;101858.22;;;-1.38;100.00
23574;BME280;11965;53.640;10.050;2023-03-16T05:58:55;101857.94;;;-1.34;100.00
23574;BME280;11965;53.640;10.050;2023-03-16T06:01:23;101868.63;;;-1.30;100.00
23574;BME280;11965;53.640;10.050;2023-03-16T06:03:51;101862.81;;;-1.24;100.00
23574;BME280;11965;53.640;10.050;2023-03-16T06:06:21;101856.13;;;-1.19;100.00
23574;BME280;11965;53.640;10.050;2023-03-16T06:09:01;101852.16;;;-1.13;100.00
23574;BME280;11965;53.640;10.050;2023-03-16T06:11:28;101858.38;;;-1.11;100.00
23574;BME280;11965;53.640;10.050;2023-03-16T06:13:59;101858.38;;;-1.11;100.00
23574;BME280;11965;53.640;10.050;2023-03-16T06:16:26;101860.44;;;-1.00;100.00
23574;BME280;11965;53.640;10.050;2023-03-16T06:18:53;101861.44;;;-0.87;100.00
23574;BME280;11965;53.640;10.050;2023-03-16T06:21:21;101853.75;;;-0.80;100.00
23574;BME280;11965;53.640;10.050;2023-03-16T06:23:51;101852.19;;;-0.70;100.00
23574;BME280;11965;53.640;10.050;2023-03-16T06:26:19;101852.09;;;-0.54;100.00
23574;BME280;11965;53.640;10.050;2023-03-16T06:28:48;101863.69;;;-0.51;100.00
23574;BME280;11965;53.640;10.050;2023-03-16T06:31:16;101865.00;;;-0.43;100.00
23574;BME280;11965;53.640;10.050;2023-03-16T06:33:45;101874.75;;;-0.39;100.00
23574;BME280;11965;53.640;10.050;2023-03-16T06:36:12;101873.19;;;-0.29;100.00
23574;BME280;11965;53.640;10.050;2023-03-16T06:38:44;101872.75;;;-0.09;100.00
23574;BME280;11965;53.640;10.050;2023-03-16T06:41:33;101880.34;;;0.01;100.00
23574;BME280;11965;53.640;10.050;2023-03-16T06:44:01;101878.47;;;0.01;100.00
23574;BME280;11965;53.640;10.050;2023-03-16T06:46:30;101875.56;;;0.04;100.00
23574;BME280;11965;53.640;10.050;2023-03-16T06:48:59;101880.78;;;0.07;100.00
23574;BME280;11965;53.640;10.050;2023-03-16T06:51:26;101873.84;;;0.16;100.00
23574;BME280;11965;53.640;10.050;2023-03-16T06:53:53;101880.44;;;0.26;100.00
23574;BME280;11965;53.640;10.050;2023-03-16T06:56:20;101880.56;;;0.25;100.00
23574;BME280;11965;53.640;10.050;2023-03-16T06:58:48;101867.50;;;0.30;100.00
23574;BME280;11965;53.640;10.050;2023-03-16T07:01:16;101867.72;;;0.39;100.00
23574;BME280;11965;53.640;10.050;2023-03-16T07:03:44;101873.75;;;0.44;100.00
23574;BME280;11965;53.640;10.050;2023-03-16T07:06:19;101882.94;;;0.43;100.00
23574;BME280;11965;53.640;10.050;2023-03-16T07:08:46;101877.13;;;0.48;100.00
23574;BME280;11965;53.640;10.050;2023-03-16T07:11:14;101881.69;;;0.62;100.00
23574;BME280;11965;53.640;10.050;2023-03-16T07:13:41;101882.06;;;0.56;100.00
23574;BME280;11965;53.640;10.050;2023-03-16T07:16:09;101879.91;;;0.61;100.00
23574;BME280;11965;53.640;10.050;2023-03-16T07:18:36;101880.16;;;0.71;100.00
23574;BME280;11965;53.640;10.050;2023-03-16T07:21:07;101885.66;;;0.83;99.44
23574;BME280;11965;53.640;10.050;2023-03-16T07:23:34;101888.94;;;1.01;98.90
23574;BME280;11965;53.640;10.050;2023-03-16T07:26:04;101886.47;;;1.11;98.30
23574;BME280;11965;53.640;10.050;2023-03-16T07:28:33;101884.84;;;1.21;95.23
23574;BME280;11965;53.640;10.050;2023-03-16T07:31:01;101887.66;;;1.32;94.61
23574;BME280;11965;53.640;10.050;2023-03-16T07:33:33;101889.72;;;1.42;96.35
23574;BME280;11965;53.640;10.050;2023-03-16T07:36:03;101884.72;;;1.48;94.33
23574;BME280;11965;53.640;10.050;2023-03-16T07:38:33;101886.44;;;1.49;93.98
23574;BME280;11965;53.640;10.050;2023-03-16T07:41:01;101891.81;;;1.51;94.75
23574;BME280;11965;53.640;10.050;2023-03-16T07:43:29;101888.19;;;1.63;94.70
23574;BME280;11965;53.640;10.050;2023-03-16T07:45:55;101881.75;;;1.64;92.69
23574;BME280;11965;53.640;10.050;2023-03-16T07:48:23;101896.16;;;1.66;93.62
23574;BME280;11965;53.640;10.050;2023-03-16T07:50:55;101890.25;;;1.72;93.04
23574;BME280;11965;53.640;10.050;2023-03-16T07:53:23;101887.47;;;1.85;91.63
23574;BME280;11965;53.640;10.050;2023-03-16T07:56:02;101886.06;;;1.92;89.54
23574;BME280;11965;53.640;10.050;2023-03-16T07:58:32;101886.81;;;1.94;89.46
23574;BME280;11965;53.640;10.050;2023-03-16T08:01:00;101891.38;;;2.07;89.29
23574;BME280;11965;53.640;10.050;2023-03-16T08:03:28;101901.31;;;2.20;86.05
23574;BME280;11965;53.640;10.050;2023-03-16T08:05:56;101890.06;;;2.36;87.11
23574;BME280;11965;53.640;10.050;2023-03-16T08:08:23;101884.78;;;2.46;81.54
23574;BME280;11965;53.640;10.050;2023-03-16T08:10:51;101884.47;;;2.62;81.89
23574;BME280;11965;53.640;10.050;2023-03-16T08:13:22;101883.31;;;2.77;83.06
23574;BME280;11965;53.640;10.050;2023-03-16T08:15:51;101889.56;;;2.91;79.82
23574;BME280;11965;53.640;10.050;2023-03-16T08:18:30;101877.28;;;3.07;79.08
23574;BME280;11965;53.640;10.050;2023-03-16T08:20:57;101881.16;;;3.16;76.57
23574;BME280;11965;53.640;10.050;2023-03-16T08:23:25;101877.59;;;3.38;75.64
23574;BME280;11965;53.640;10.050;2023-03-16T08:25:55;101876.25;;;3.55;74.28
23574;BME280;11965;53.640;10.050;2023-03-16T08:28:25;101871.63;;;3.67;73.60
23574;BME280;11965;53.640;10.050;2023-03-16T08:30:53;101872.13;;;3.72;73.03
23574;BME280;11965;53.640;10.050;2023-03-16T08:33:43;101869.41;;;3.49;73.00
23574;BME280;11965;53.640;10.050;2023-03-16T08:36:15;101880.09;;;3.52;72.59
23574;BME280;11965;53.640;10.050;2023-03-16T08:38:46;101870.00;;;3.64;74.60
23574;BME280;11965;53.640;10.050;2023-03-16T08:41:13;101879.09;;;3.76;71.94
23574;BME280;11965;53.640;10.050;2023-03-16T08:43:42;101871.84;;;3.97;72.05
23574;BME280;11965;53.640;10.050;2023-03-16T08:46:12;101873.97;;;4.05;72.07
23574;BME280;11965;53.640;10.050;2023-03-16T08:48:46;101871.09;;;4.07;71.22
23574;BME280;11965;53.640;10.050;2023-03-16T08:51:13;101868.69;;;4.13;68.80
23574;BME280;11965;53.640;10.050;2023-03-16T08:53:42;101869.69;;;4.24;69.94
23574;BME280;11965;53.640;10.050;2023-03-16T08:56:11;101872.28;;;4.36;69.10
23574;BME280;11965;53.640;10.050;2023-03-16T08:58:39;101872.00;;;4.39;69.69
23574;BME280;11965;53.640;10.050;2023-03-16T09:01:12;101865.66;;;4.39;67.33
23574;BME280;11965;53.640;10.050;2023-03-16T09:03:40;101864.00;;;4.48;67.65
23574;BME280;11965;53.640;10.050;2023-03-16T09:06:08;101858.69;;;4.67;71.55
23574;BME280;11965;53.640;10.050;2023-03-16T09:08:36;101862.25;;;4.79;67.78
23574;BME280;11965;53.640;10.050;2023-03-16T09:11:07;101856.91;;;4.98;68.77
23574;BME280;11965;53.640;10.050;2023-03-16T09:13:35;101854.47;;;5.05;66.92
23574;BME280;11965;53.640;10.050;2023-03-16T09:16:04;101856.16;;;5.17;66.00
23574;BME280;11965;53.640;10.050;2023-03-16T09:18:33;101853.31;;;5.19;63.42
23574;BME280;11965;53.640;10.050;2023-03-16T09:21:02;101854.81;;;5.32;63.41
23574;BME280;11965;53.640;10.050;2023-03-16T09:23:31;101854.59;;;5.45;62.43
23574;BME280;11965;53.640;10.050;2023-03-16T09:26:01;101845.25;;;5.58;64.12
23574;BME280;11965;53.640;10.050;2023-03-16T09:28:30;101839.53;;;5.70;61.08
23574;BME280;11965;53.640;10.050;2023-03-16T09:30:57;101841.25;;;5.71;62.98
23574;BME280;11965;53.640;10.050;2023-03-16T09:33:25;101841.31;;;5.81;62.36
23574;BME280;11965;53.640;10.050;2023-03-16T09:35:54;101843.34;;;5.89;60.36
23574;BME280;11965;53.640;10.050;2023-03-16T09:38:23;101846.16;;;5.98;61.03
23574;BME280;11965;53.640;10.050;2023-03-16T09:40:57;101835.47;;;6.05;59.36
23574;BME280;11965;53.640;10.050;2023-03-16T09:43:38;101829.13;;;6.34;58.93
23574;BME280;11965;53.640;10.050;2023-03-16T09:46:12;101837.13;;;6.37;59.94
23574;BME280;11965;53.640;10.050;2023-03-16T09:48:46;101822.78;;;6.43;56.89
23574;BME280;11965;53.640;10.050;2023-03-16T09:51:21;101824.94;;;6.49;58.10
23574;BME280;11965;53.640;10.050;2023-03-16T09:53:54;101824.94;;;6.69;59.60
23574;BME280;11965;53.640;10.050;2023-03-16T10:03:51;101818.84;;;6.94;54.77
23574;BME280;11965;53.640;10.050;2023-03-16T10:07:08;101814.69;;;7.27;56.43
23574;BME280;11965;53.640;10.050;2023-03-16T10:09:51;101809.81;;;7.59;54.90
23574;BME280;11965;53.640;10.050;2023-03-16T10:12:24;101805.00;;;7.61;55.02
23574;BME280;11965;53.640;10.050;2023-03-16T10:15:00;101808.72;;;7.79;53.43
23574;BME280;11965;53.640;10.050;2023-03-16T10:17:37;101802.78;;;7.74;52.09
23574;BME280;11965;53.640;10.050;2023-03-16T10:20:15;101798.31;;;7.63;54.12
23574;BME280;11965;53.640;10.050;2023-03-16T10:22:46;101795.81;;;7.70;51.37
23574;BME280;11965;53.640;10.050;2023-03-16T10:25:21;101798.09;;;8.02;50.73
23574;BME280;11965;53.640;10.050;2023-03-16T10:27:50;101796.78;;;8.06;50.99
23574;BME280;11965;53.640;10.050;2023-03-16T10:30:23;101797.09;;;8.21;48.74
23574;BME280;11965;53.640;10.050;2023-03-16T10:32:53;101792.34;;;8.13;50.00
23574;BME280;11965;53.640;10.050;2023-03-16T10:35:32;101794.03;;;8.06;48.21
23574;BME280;11965;53.640;10.050;2023-03-16T10:38:01;101787.50;;;8.25;49.64
23574;BME280;11965;53.640;10.050;2023-03-16T10:40:30;101791.03;;;8.17;46.85
23574;BME280;11965;53.640;10.050;2023-03-16T10:43:04;101781.97;;;8.25;45.46
23574;BME280;11965;53.640;10.050;2023-03-16T10:45:34;101782.19;;;8.32;47.10
23574;BME280;11965;53.640;10.050;2023-03-16T10:48:06;101781.31;;;8.41;45.50
23574;BME280;11965;53.640;10.050;2023-03-16T10:50:33;101775.34;;;8.36;45.35
23574;BME280;11965;53.640;10.050;2023-03-16T10:53:02;101782.19;;;8.32;43.37
23574;BME280;11965;53.640;10.050;2023-03-16T10:55:31;101782.31;;;8.58;43.07
23574;BME280;11965;53.640;10.050;2023-03-16T10:58:07;101774.97;;;8.49;42.94
23574;BME280;11965;53.640;10.050;2023-03-16T11:00:40;101762.97;;;8.58;45.72
23574;BME280;11965;53.640;10.050;2023-03-16T11:03:20;101772.19;;;8.49;43.07
23574;BME280;11965;53.640;10.050;2023-03-16T11:05:57;101773.97;;;8.50;41.23
23574;BME280;11965;53.640;10.050;2023-03-16T11:08:26;101766.94;;;8.55;40.33
23574;BME280;11965;53.640;10.050;2023-03-16T11:10:58;101759.56;;;8.46;39.40
23574;BME280;11965;53.640;10.050;2023-03-16T11:13:32;101749.44;;;8.73;39.29
23574;BME280;11965;53.640;10.050;2023-03-16T11:16:05;101754.72;;;8.84;39.74
23574;BME280;11965;53.640;10.050;2023-03-16T11:18:45;101757.00;;;8.89;39.13
23574;BME280;11965;53.640;10.050;2023-03-16T11:21:18;101738.81;;;9.38;39.23
23574;BME280;11965;53.640;10.050;2023-03-16T11:23:55;101737.81;;;9.47;39.86
23574;BME280;11965;53.640;10.050;2023-03-16T11:26:30;101727.09;;;9.44;40.67
23574;BME280;11965;53.640;10.050;2023-03-16T11:29:03;101725.47;;;9.34;38.19
23574;BME280;11965;53.640;10.050;2023-03-16T11:31:40;101726.34;;;9.34;38.16
23574;BME280;11965;53.640;10.050;2023-03-16T11:34:14;101726.53;;;9.33;38.01
23574;BME280;11965;53.640;10.050;2023-03-16T11:36:48;101721.72;;;9.09;36.71
23574;BME280;11965;53.640;10.050;2023-03-16T11:39:30;101732.88;;;8.99;35.60
23574;BME280;11965;53.640;10.050;2023-03-16T11:42:22;101721.75;;;9.17;36.12
23574;BME280;11965;53.640;10.050;2023-03-16T11:45:00;101713.50;;;9.25;34.19
23574;BME280;11965;53.640;10.050;2023-03-16T11:47:57;101703.34;;;9.34;36.01
23574;BME280;11965;53.640;10.050;2023-03-16T11:50:38;101705.25;;;9.33;32.89
23574;BME280;11965;53.640;10.050;2023-03-16T11:53:23;101711.13;;;9.30;32.66
23574;BME280;11965;53.640;10.050;2023-03-16T11:56:05;101687.50;;;9.52;34.56
23574;BME280;11965;53.640;10.050;2023-03-16T11:58:54;101695.13;;;9.58;34.55
23574;BME280;11965;53.640;10.050;2023-03-16T12:01:41;101680.00;;;9.36;33.74
23574;BME280;11965;53.640;10.050;2023-03-16T12:04:26;101685.38;;;9.38;34.17
23574;BME280;11965;53.640;10.050;2023-03-16T12:07:11;101684.50;;;9.37;34.08
23574;BME280;11965;53.640;10.050;2023-03-16T12:10:15;101666.75;;;9.56;35.27
23574;BME280;11965;53.640;10.050;2023-03-16T12:13:07;101666.16;;;9.87;33.19
23574;BME280;11965;53.640;10.050;2023-03-16T12:15:42;101670.63;;;9.80;34.69
23574;BME280;11965;53.640;10.050;2023-03-16T12:18:17;101658.88;;;9.86;32.94
23574;BME280;11965;53.640;10.050;2023-03-16T12:20:52;101668.94;;;9.95;33.87
23574;BME280;11965;53.640;10.050;2023-03-16T12:23:25;101654.41;;;10.26;33.17
23574;BME280;11965;53.640;10.050;2023-03-16T12:25:57;101653.69;;;9.99;32.54
23574;BME280;11965;53.640;10.050;2023-03-16T12:28:28;101645.75;;;10.21;32.71
23574;BME280;11965;53.640;10.050;2023-03-16T12:31:11;101648.75;;;10.27;32.89
23574;BME280;11965;53.640;10.050;2023-03-16T12:34:01;101647.31;;;10.23;32.39
23574;BME280;11965;53.640;10.050;2023-03-16T12:36:59;101639.88;;;10.15;30.58
23574;BME280;11965;53.640;10.050;2023-03-16T12:42:56;101620.41;;;9.66;32.78
23574;BME280;11965;53.640;10.050;2023-03-16T12:45:35;101628.41;;;9.78;32.15
23574;BME280;11965;53.640;10.050;2023-03-16T12:48:14;101618.31;;;9.44;32.93
23574;BME280;11965;53.640;10.050;2023-03-16T12:50:51;101620.75;;;9.63;33.82
23574;BME280;11965;53.640;10.050;2023-03-16T12:53:27;101607.66;;;9.90;32.53
23574;BME280;11965;53.640;10.050;2023-03-16T12:55:55;101609.38;;;9.99;31.88
23574;BME280;11965;53.640;10.050;2023-03-16T12:58:24;101602.97;;;10.15;31.79
23574;BME280;11965;53.640;10.050;2023-03-16T13:00:58;101607.50;;;10.00;30.21
23574;BME280;11965;53.640;10.050;2023-03-16T13:03:26;101591.38;;;9.79;29.44
23574;BME280;11965;53.640;10.050;2023-03-16T13:05:57;101587.03;;;9.51;30.52
23574;BME280;11965;53.640;10.050;2023-03-16T13:08:26;101601.53;;;9.54;31.24
23574;BME280;11965;53.640;10.050;2023-03-16T13:11:05;101594.28;;;9.52;32.13
23574;BME280;11965;53.640;10.050;2023-03-16T13:13:33;101580.31;;;9.79;34.34